sensor_id;sensor_type;location;lat;lon;timestamp;pressure;altitude;pressure_sealevel;temperature;humidity
5550;BME280;2798;42.716;23.256;2022-11-11T00:00:21;95860.19;;;11.52;78.47
5550;BME280;2798;42.716;23.256;2022-11-11T00:02:47;95866.91;;;11.55;78.86
5550;BME280;2798;42.716;23.256;2022-11-11T00:05:14;95851.25;;;11.58;78.94
5550;BME280;2798;42.716;23.256;2022-11-11T00:07:40;95849.69;;;11.55;79.03
5550;BME280;2798;42.716;23.256;2022-11-11T00:10:06;95856.50;;;11.56;78.92
5550;BME280;2798;42.716;23.256;2022-11-11T00:12:31;95851.16;;;11.59;78.88
5550;BME280;2798;42.716;23.256;2022-11-11T00:14:57;95853.34;;;11.51;79.08
5550;BME280;2798;42.716;23.256;2022-11-11T00:17:22;95855.50;;;11.59;79.36
5550;BME280;2798;42.716;23.256;2022-11-11T00:20:11;95844.63;;;11.54;79.67
5550;BME280;2798;42.716;23.256;2022-11-11T00:22:56;95864.41;;;11.53;79.55
5550;BME280;2798;42.716;23.256;2022-11-11T00:25:40;95859.28;;;11.68;79.78
5550;BME280;2798;42.716;23.256;2022-11-11T00:28:05;95856.53;;;11.71;79.89
5550;BME280;2798;42.716;23.256;2022-11-11T00:30:31;95866.09;;;11.69;80.47
5550;BME280;2798;42.716;23.256;2022-11-11T00:32:57;95864.44;;;11.68;80.61
5550;BME280;2798;42.716;23.256;2022-11-11T00:35:22;95867.03;;;11.68;80.71
5550;BME280;2798;42.716;23.256;2022-11-11T00:38:09;95863.38;;;11.72;80.47
5550;BME280;2798;42.716;23.256;2022-11-11T00:40:35;95860.84;;;11.70;80.77
5550;BME280;2798;42.716;23.256;2022-11-11T00:43:00;95827.66;;;11.49;80.66
5550;BME280;2798;42.716;23.256;2022-11-11T00:45:26;95853.66;;;11.75;80.73
5550;BME280;2798;42.716;23.256;2022-11-11T00:47:51;95857.84;;;11.78;80.88
5550;BME280;2798;42.716;23.256;2022-11-11T00:50:35;95860.41;;;11.78;80.98
5550;BME280;2798;42.716;23.256;2022-11-11T00:53:25;95860.31;;;11.80;81.14
5550;BME280;2798;42.716;23.256;2022-11-11T00:55:52;95855.06;;;11.81;80.77
5550;BME280;2798;42.716;23.256;2022-11-11T00:58:17;95847.34;;;11.81;80.53
5550;BME280;2798;42.716;23.256;2022-11-11T01:00:43;95857.28;;;11.87;81.16
5550;BME280;2798;42.716;23.256;2022-11-11T01:03:08;95812.41;;;11.61;80.78
5550;BME280;2798;42.716;23.256;2022-11-11T01:05:36;95852.31;;;11.84;80.94
5550;BME280;2798;42.716;23.256;2022-11-11T01:08:02;95853.69;;;11.90;81.26
5550;BME280;2798;42.716;23.256;2022-11-11T01:10:27;95839.22;;;11.87;81.00
5550;BME280;2798;42.716;23.256;2022-11-11T01:13:17;95837.66;;;11.85;81.39
5550;BME280;2798;42.716;23.256;2022-11-11T01:15:45;95848.53;;;11.90;81.32
5550;BME280;2798;42.716;23.256;2022-11-11T01:18:13;95843.56;;;11.87;81.46
5550;BME280;2798;42.716;23.256;2022-11-11T01:20:40;95852.88;;;11.90;81.85
5550;BME280;2798;42.716;23.256;2022-11-11T01:23:07;95850.13;;;11.93;81.78
5550;BME280;2798;42.716;23.256;2022-11-11T01:25:37;95853.78;;;11.89;81.35
5550;BME280;2798;42.716;23.256;2022-11-11T01:28:04;95843.94;;;11.95;81.26
5550;BME280;2798;42.716;23.256;2022-11-11T01:30:31;95845.28;;;12.01;81.68
5550;BME280;2798;42.716;23.256;2022-11-11T01:32:57;95851.47;;;11.98;81.74
5550;BME280;2798;42.716;23.256;2022-11-11T01:35:22;95842.28;;;11.94;81.38
5550;BME280;2798;42.716;23.256;2022-11-11T01:37:48;95829.00;;;11.86;81.50
5550;BME280;2798;42.716;23.256;2022-11-11T01:40:13;95853.31;;;11.96;81.91
5550;BME280;2798;42.716;23.256;2022-11-11T01:42:52;95851.56;;;11.97;81.91
5550;BME280;2798;42.716;23.256;2022-11-11T01:48:40;95859.50;;;11.94;81.93
5550;BME280;2798;42.716;23.256;2022-11-11T01:54:43;95867.06;;;11.97;82.04
5550;BME280;2798;42.716;23.256;2022-11-11T01:57:16;95856.81;;;11.95;82.30
5550;BME280;2798;42.716;23.256;2022-11-11T01:59:45;95863.81;;;11.93;82.53
5550;BME280;2798;42.716;23.256;2022-11-11T02:02:19;95863.00;;;11.93;82.59
5550;BME280;2798;42.716;23.256;2022-11-11T02:04:47;95863.91;;;11.92;82.32
5550;BME280;2798;42.716;23.256;2022-11-11T02:07:33;95868.16;;;11.93;82.21
5550;BME280;2798;42.716;23.256;2022-11-11T02:10:00;95862.06;;;11.94;82.48
5550;BME280;2798;42.716;23.256;2022-11-11T02:12:27;95863.09;;;11.91;82.89
5550;BME280;2798;42.716;23.256;2022-11-11T02:15:11;95863.19;;;11.90;82.98
5550;BME280;2798;42.716;23.256;2022-11-11T02:17:37;95867.41;;;11.91;82.87
5550;BME280;2798;42.716;23.256;2022-11-11T02:20:04;95833.69;;;11.79;82.88
5550;BME280;2798;42.716;23.256;2022-11-11T02:24:55;95865.31;;;11.97;83.40
5550;BME280;2798;42.716;23.256;2022-11-11T02:27:23;95863.44;;;11.99;83.32
5550;BME280;2798;42.716;23.256;2022-11-11T02:29:52;95863.81;;;11.93;83.04
5550;BME280;2798;42.716;23.256;2022-11-11T02:32:19;95859.97;;;12.01;82.85
5550;BME280;2798;42.716;23.256;2022-11-11T02:34:45;95870.38;;;11.99;83.30
5550;BME280;2798;42.716;23.256;2022-11-11T02:37:10;95866.03;;;11.99;83.07
5550;BME280;2798;42.716;23.256;2022-11-11T02:39:41;95852.78;;;11.91;83.42
5550;BME280;2798;42.716;23.256;2022-11-11T02:42:08;95861.97;;;11.95;83.42
5550;BME280;2798;42.716;23.256;2022-11-11T02:44:35;95863.44;;;11.99;83.92
5550;BME280;2798;42.716;23.256;2022-11-11T02:47:03;95861.63;;;12.02;83.59
5550;BME280;2798;42.716;23.256;2022-11-11T02:49:28;95865.94;;;12.01;83.67
5550;BME280;2798;42.716;23.256;2022-11-11T02:51:54;95869.06;;;12.06;83.69
5550;BME280;2798;42.716;23.256;2022-11-11T02:54:19;95855.09;;;11.96;83.18
5550;BME280;2798;42.716;23.256;2022-11-11T02:56:45;95866.44;;;12.08;83.40
5550;BME280;2798;42.716;23.256;2022-11-11T02:59:28;95869.84;;;12.08;83.34
5550;BME280;2798;42.716;23.256;2022-11-11T03:01:54;95868.03;;;12.10;83.70
5550;BME280;2798;42.716;23.256;2022-11-11T03:04:19;95859.69;;;12.05;83.24
5550;BME280;2798;42.716;23.256;2022-11-11T03:06:45;95870.41;;;12.14;83.68
5550;BME280;2798;42.716;23.256;2022-11-11T03:09:10;95876.19;;;12.17;83.25
5550;BME280;2798;42.716;23.256;2022-11-11T03:11:35;95872.91;;;12.15;83.32
5550;BME280;2798;42.716;23.256;2022-11-11T03:14:03;95877.97;;;12.17;83.47
5550;BME280;2798;42.716;23.256;2022-11-11T03:16:28;95868.63;;;12.14;84.10
5550;BME280;2798;42.716;23.256;2022-11-11T03:19:12;95862.66;;;12.14;84.03
5550;BME280;2798;42.716;23.256;2022-11-11T03:21:38;95869.09;;;12.21;84.00
5550;BME280;2798;42.716;23.256;2022-11-11T03:24:03;95872.63;;;12.20;84.01
5550;BME280;2798;42.716;23.256;2022-11-11T03:26:29;95868.00;;;12.25;84.31
5550;BME280;2798;42.716;23.256;2022-11-11T03:28:55;95862.28;;;12.20;84.19
5550;BME280;2798;42.716;23.256;2022-11-11T03:31:20;95867.09;;;12.26;84.78
5550;BME280;2798;42.716;23.256;2022-11-11T03:33:46;95868.63;;;12.29;84.05
5550;BME280;2798;42.716;23.256;2022-11-11T03:36:12;95860.78;;;12.30;84.48
5550;BME280;2798;42.716;23.256;2022-11-11T03:38:38;95849.22;;;12.23;84.02
5550;BME280;2798;42.716;23.256;2022-11-11T03:41:03;95866.69;;;12.32;84.04
5550;BME280;2798;42.716;23.256;2022-11-11T03:43:30;95861.34;;;12.35;83.98
5550;BME280;2798;42.716;23.256;2022-11-11T03:45:58;95859.50;;;12.38;84.35
5550;BME280;2798;42.716;23.256;2022-11-11T03:48:26;95864.38;;;12.42;83.85
5550;BME280;2798;42.716;23.256;2022-11-11T03:50:51;95867.06;;;12.41;84.53
5550;BME280;2798;42.716;23.256;2022-11-11T03:53:18;95876.28;;;12.45;85.04
5550;BME280;2798;42.716;23.256;2022-11-11T03:55:48;95862.66;;;12.43;85.13
5550;BME280;2798;42.716;23.256;2022-11-11T03:58:14;95864.38;;;12.42;85.19
5550;BME280;2798;42.716;23.256;2022-11-11T04:00:40;95858.84;;;12.48;85.36
5550;BME280;2798;42.716;23.256;2022-11-11T04:03:13;95866.41;;;12.52;85.80
5550;BME280;2798;42.716;23.256;2022-11-11T04:05:58;95859.69;;;12.49;86.05
5550;BME280;2798;42.716;23.256;2022-11-11T04:08:43;95855.53;;;12.46;86.43
5550;BME280;2798;42.716;23.256;2022-11-11T04:11:32;95862.34;;;12.47;86.78
5550;BME280;2798;42.716;23.256;2022-11-11T04:14:02;95865.75;;;12.48;86.08
5550;BME280;2798;42.716;23.256;2022-11-11T04:16:46;95865.56;;;12.51;86.22
5550;BME280;2798;42.716;23.256;2022-11-11T04:19:11;95870.72;;;12.51;86.97
5550;BME280;2798;42.716;23.256;2022-11-11T04:21:55;95860.78;;;12.45;86.97
5550;BME280;2798;42.716;23.256;2022-11-11T04:24:21;95872.94;;;12.57;86.84
5550;BME280;2798;42.716;23.256;2022-11-11T04:27:10;95874.97;;;12.52;86.86
5550;BME280;2798;42.716;23.256;2022-11-11T04:29:35;95875.78;;;12.53;87.44
5550;BME280;2798;42.716;23.256;2022-11-11T04:32:07;95877.28;;;12.57;87.51
5550;BME280;2798;42.716;23.256;2022-11-11T04:35:02;95880.69;;;12.57;86.88
5550;BME280;2798;42.716;23.256;2022-11-11T04:37:32;95888.34;;;12.59;86.75
5550;BME280;2798;42.716;23.256;2022-11-11T04:39:58;95881.97;;;12.65;86.97
5550;BME280;2798;42.716;23.256;2022-11-11T04:42:43;95872.78;;;12.46;87.75
5550;BME280;2798;42.716;23.256;2022-11-11T04:45:10;95892.84;;;12.70;87.53
5550;BME280;2798;42.716;23.256;2022-11-11T04:50:28;95882.06;;;12.63;88.39
5550;BME280;2798;42.716;23.256;2022-11-11T04:52:54;95895.44;;;12.70;88.17
5550;BME280;2798;42.716;23.256;2022-11-11T04:55:19;95882.50;;;12.70;87.69
5550;BME280;2798;42.716;23.256;2022-11-11T04:58:03;95888.16;;;12.62;88.08
5550;BME280;2798;42.716;23.256;2022-11-11T05:00:29;95887.31;;;12.61;88.82
5550;BME280;2798;42.716;23.256;2022-11-11T05:02:57;95891.16;;;12.69;88.51
5550;BME280;2798;42.716;23.256;2022-11-11T05:05:42;95893.84;;;12.67;87.96
5550;BME280;2798;42.716;23.256;2022-11-11T05:08:27;95887.03;;;12.66;88.03
5550;BME280;2798;42.716;23.256;2022-11-11T05:11:10;95901.78;;;12.64;87.76
5550;BME280;2798;42.716;23.256;2022-11-11T05:13:36;95899.19;;;12.64;87.78
5550;BME280;2798;42.716;23.256;2022-11-11T05:16:22;95896.53;;;12.66;87.54
5550;BME280;2798;42.716;23.256;2022-11-11T05:19:10;95901.69;;;12.66;87.85
5550;BME280;2798;42.716;23.256;2022-11-11T05:21:56;95892.09;;;12.68;87.77
5550;BME280;2798;42.716;23.256;2022-11-11T05:24:22;95895.81;;;12.64;87.73
5550;BME280;2798;42.716;23.256;2022-11-11T05:27:05;95896.00;;;12.60;87.00
5550;BME280;2798;42.716;23.256;2022-11-11T05:29:31;95913.06;;;12.63;87.18
5550;BME280;2798;42.716;23.256;2022-11-11T05:31:56;95898.78;;;12.57;86.55
5550;BME280;2798;42.716;23.256;2022-11-11T05:34:21;95912.75;;;12.68;87.12
5550;BME280;2798;42.716;23.256;2022-11-11T05:36:47;95923.94;;;12.68;86.41
5550;BME280;2798;42.716;23.256;2022-11-11T05:39:12;95922.25;;;12.67;86.99
5550;BME280;2798;42.716;23.256;2022-11-11T05:41:38;95922.25;;;12.67;86.82
5550;BME280;2798;42.716;23.256;2022-11-11T05:44:03;95920.41;;;12.69;86.00
5550;BME280;2798;42.716;23.256;2022-11-11T05:46:28;95923.00;;;12.69;86.63
5550;BME280;2798;42.716;23.256;2022-11-11T05:48:54;95917.94;;;12.68;86.26
5550;BME280;2798;42.716;23.256;2022-11-11T05:51:38;95932.69;;;12.66;86.32
5550;BME280;2798;42.716;23.256;2022-11-11T05:54:03;95938.59;;;12.68;86.14
5550;BME280;2798;42.716;23.256;2022-11-11T05:56:29;95939.63;;;12.65;86.61
5550;BME280;2798;42.716;23.256;2022-11-11T05:58:54;95947.09;;;12.70;86.10
5550;BME280;2798;42.716;23.256;2022-11-11T06:01:19;95947.38;;;12.65;85.18
5550;BME280;2798;42.716;23.256;2022-11-11T06:03:45;95971.78;;;12.59;85.43
5550;BME280;2798;42.716;23.256;2022-11-11T06:06:11;95951.13;;;12.59;86.49
5550;BME280;2798;42.716;23.256;2022-11-11T06:08:36;95959.25;;;12.53;84.22
5550;BME280;2798;42.716;23.256;2022-11-11T06:11:02;95960.09;;;12.39;83.26
5550;BME280;2798;42.716;23.256;2022-11-11T06:13:27;95966.34;;;12.35;84.88
5550;BME280;2798;42.716;23.256;2022-11-11T06:15:55;95966.09;;;12.25;85.65
5550;BME280;2798;42.716;23.256;2022-11-11T06:18:21;95974.06;;;12.20;86.12
5550;BME280;2798;42.716;23.256;2022-11-11T06:20:57;95996.03;;;12.28;87.50
5550;BME280;2798;42.716;23.256;2022-11-11T06:23:23;95967.28;;;12.19;85.61
5550;BME280;2798;42.716;23.256;2022-11-11T06:25:49;95971.25;;;12.10;86.39
5550;BME280;2798;42.716;23.256;2022-11-11T06:28:33;95977.44;;;12.06;86.47
5550;BME280;2798;42.716;23.256;2022-11-11T06:30:58;95976.63;;;12.06;87.74
5550;BME280;2798;42.716;23.256;2022-11-11T06:33:24;95991.28;;;12.05;85.87
5550;BME280;2798;42.716;23.256;2022-11-11T06:35:49;95990.44;;;12.05;85.88
5550;BME280;2798;42.716;23.256;2022-11-11T06:38:16;95993.78;;;12.07;86.25
5550;BME280;2798;42.716;23.256;2022-11-11T06:40:42;95989.53;;;12.06;88.60
5550;BME280;2798;42.716;23.256;2022-11-11T06:43:08;95984.44;;;12.04;88.40
5550;BME280;2798;42.716;23.256;2022-11-11T06:45:34;95995.56;;;12.21;88.34
5550;BME280;2798;42.716;23.256;2022-11-11T06:48:04;96009.69;;;12.30;88.56
5550;BME280;2798;42.716;23.256;2022-11-11T06:50:31;95994.31;;;12.28;88.09
5550;BME280;2798;42.716;23.256;2022-11-11T06:53:03;96002.31;;;12.38;87.70
5550;BME280;2798;42.716;23.256;2022-11-11T06:55:30;96008.69;;;12.47;87.44
5550;BME280;2798;42.716;23.256;2022-11-11T06:58:06;95993.75;;;12.38;86.97
5550;BME280;2798;42.716;23.256;2022-11-11T07:00:32;95999.81;;;12.51;87.12
5550;BME280;2798;42.716;23.256;2022-11-11T07:02:58;96007.75;;;12.63;87.07
5550;BME280;2798;42.716;23.256;2022-11-11T07:05:23;96010.16;;;12.66;86.36
5550;BME280;2798;42.716;23.256;2022-11-11T07:07:49;96012.75;;;12.66;86.34
5550;BME280;2798;42.716;23.256;2022-11-11T07:10:14;96015.69;;;12.74;86.56
5550;BME280;2798;42.716;23.256;2022-11-11T07:12:42;96019.78;;;12.78;86.02
5550;BME280;2798;42.716;23.256;2022-11-11T07:15:07;96013.59;;;12.81;86.04
5550;BME280;2798;42.716;23.256;2022-11-11T07:17:33;96027.88;;;12.86;85.84
5550;BME280;2798;42.716;23.256;2022-11-11T07:19:58;96014.94;;;12.86;86.11
5550;BME280;2798;42.716;23.256;2022-11-11T07:22:24;96023.34;;;12.90;85.83
5550;BME280;2798;42.716;23.256;2022-11-11T07:24:49;96018.47;;;12.85;85.59
5550;BME280;2798;42.716;23.256;2022-11-11T07:27:15;96028.31;;;12.93;85.37
5550;BME280;2798;42.716;23.256;2022-11-11T07:29:40;96016.63;;;12.88;85.76
5550;BME280;2798;42.716;23.256;2022-11-11T07:32:05;96028.97;;;12.97;84.88
5550;BME280;2798;42.716;23.256;2022-11-11T07:34:31;96037.38;;;13.01;85.16
5550;BME280;2798;42.716;23.256;2022-11-11T07:36:57;96034.59;;;13.04;85.21
5550;BME280;2798;42.716;23.256;2022-11-11T07:39:22;96041.34;;;13.06;84.95
5550;BME280;2798;42.716;23.256;2022-11-11T07:41:47;96043.06;;;13.06;83.80
5550;BME280;2798;42.716;23.256;2022-11-11T07:44:13;96064.97;;;13.15;84.12
5550;BME280;2798;42.716;23.256;2022-11-11T07:46:38;96040.59;;;13.04;83.56
5550;BME280;2798;42.716;23.256;2022-11-11T07:49:04;96055.00;;;13.08;84.14
5550;BME280;2798;42.716;23.256;2022-11-11T07:51:29;96031.28;;;12.87;84.10
5550;BME280;2798;42.716;23.256;2022-11-11T07:53:54;96076.31;;;13.12;83.21
5550;BME280;2798;42.716;23.256;2022-11-11T07:56:20;96062.00;;;13.06;83.75
5550;BME280;2798;42.716;23.256;2022-11-11T07:58:45;96063.50;;;13.10;83.90
5550;BME280;2798;42.716;23.256;2022-11-11T08:01:11;96055.19;;;13.05;83.74
5550;BME280;2798;42.716;23.256;2022-11-11T08:03:36;96044.94;;;13.04;83.80
5550;BME280;2798;42.716;23.256;2022-11-11T08:06:15;96060.63;;;13.15;83.97
5550;BME280;2798;42.716;23.256;2022-11-11T08:08:41;96067.16;;;13.21;84.23
5550;BME280;2798;42.716;23.256;2022-11-11T08:11:06;96062.75;;;13.23;83.09
5550;BME280;2798;42.716;23.256;2022-11-11T08:13:32;96060.81;;;13.27;82.97
5550;BME280;2798;42.716;23.256;2022-11-11T08:16:11;96058.03;;;13.30;83.35
5550;BME280;2798;42.716;23.256;2022-11-11T08:18:37;96067.25;;;13.34;83.16
5550;BME280;2798;42.716;23.256;2022-11-11T08:21:03;96061.78;;;13.39;82.79
5550;BME280;2798;42.716;23.256;2022-11-11T08:23:29;96057.34;;;13.41;82.20
5550;BME280;2798;42.716;23.256;2022-11-11T08:26:02;96073.31;;;13.47;82.15
5550;BME280;2798;42.716;23.256;2022-11-11T08:28:30;96062.88;;;13.49;81.98
5550;BME280;2798;42.716;23.256;2022-11-11T08:30:57;96061.03;;;13.51;81.56
5550;BME280;2798;42.716;23.256;2022-11-11T08:33:24;96066.00;;;13.54;81.36
5550;BME280;2798;42.716;23.256;2022-11-11T08:35:50;96067.50;;;13.58;81.45
5550;BME280;2798;42.716;23.256;2022-11-11T08:38:18;96056.78;;;13.50;81.59
5550;BME280;2798;42.716;23.256;2022-11-11T08:40:44;96062.97;;;13.62;81.55
5550;BME280;2798;42.716;23.256;2022-11-11T08:43:09;96063.47;;;13.67;81.41
5550;BME280;2798;42.716;23.256;2022-11-11T08:45:35;96056.38;;;13.71;82.00
5550;BME280;2798;42.716;23.256;2022-11-11T08:48:00;96052.31;;;13.67;80.95
5550;BME280;2798;42.716;23.256;2022-11-11T08:50:26;96067.25;;;13.76;80.49
5550;BME280;2798;42.716;23.256;2022-11-11T08:52:51;96062.72;;;13.80;80.77
5550;BME280;2798;42.716;23.256;2022-11-11T08:55:17;96072.13;;;13.81;80.79
5550;BME280;2798;42.716;23.256;2022-11-11T08:57:43;96075.16;;;13.88;79.78
5550;BME280;2798;42.716;23.256;2022-11-11T09:00:10;96074.66;;;13.95;79.11
5550;BME280;2798;42.716;23.256;2022-11-11T09:02:37;96064.22;;;13.97;79.47
5550;BME280;2798;42.716;23.256;2022-11-11T09:05:03;96066.81;;;13.97;79.05
5550;BME280;2798;42.716;23.256;2022-11-11T09:07:29;96062.47;;;13.98;79.17
5550;BME280;2798;42.716;23.256;2022-11-11T09:09:54;96058.63;;;14.03;79.61
5550;BME280;2798;42.716;23.256;2022-11-11T09:12:20;96056.38;;;14.12;79.20
5550;BME280;2798;42.716;23.256;2022-11-11T09:14:45;96060.41;;;14.16;78.44
5550;BME280;2798;42.716;23.256;2022-11-11T09:17:12;96061.16;;;14.18;78.09
5550;BME280;2798;42.716;23.256;2022-11-11T09:19:37;96058.25;;;14.23;77.77
5550;BME280;2798;42.716;23.256;2022-11-11T09:22:03;96059.72;;;14.27;78.24
5550;BME280;2798;42.716;23.256;2022-11-11T09:24:28;96058.59;;;14.31;77.83
5550;BME280;2798;42.716;23.256;2022-11-11T09:26:53;96056.44;;;14.38;78.07
5550;BME280;2798;42.716;23.256;2022-11-11T09:29:19;96075.91;;;14.43;77.41
5550;BME280;2798;42.716;23.256;2022-11-11T09:31:45;96060.16;;;14.46;76.54
5550;BME280;2798;42.716;23.256;2022-11-11T09:34:11;96060.16;;;14.46;76.80
5550;BME280;2798;42.716;23.256;2022-11-11T09:36:37;96067.72;;;14.50;75.76
5550;BME280;2798;42.716;23.256;2022-11-11T09:39:02;96051.88;;;14.54;75.16
5550;BME280;2798;42.716;23.256;2022-11-11T09:47:01;96064.72;;;14.56;74.81
5550;BME280;2798;42.716;23.256;2022-11-11T09:52:18;96048.56;;;14.65;73.83
5550;BME280;2798;42.716;23.256;2022-11-11T09:59:56;96037.38;;;14.65;73.21
5550;BME280;2798;42.716;23.256;2022-11-11T10:02:47;96049.81;;;14.73;73.39
5550;BME280;2798;42.716;23.256;2022-11-11T10:05:17;96041.59;;;14.79;72.49
5550;BME280;2798;42.716;23.256;2022-11-11T10:07:48;96034.88;;;14.76;72.99
5550;BME280;2798;42.716;23.256;2022-11-11T10:10:33;96057.91;;;14.81;72.74
5550;BME280;2798;42.716;23.256;2022-11-11T10:13:02;96029.09;;;14.86;72.85
5550;BME280;2798;42.716;23.256;2022-11-11T10:15:43;96045.25;;;14.89;72.43
5550;BME280;2798;42.716;23.256;2022-11-11T10:18:20;96028.25;;;14.98;71.78
5550;BME280;2798;42.716;23.256;2022-11-11T10:20:54;96027.22;;;14.88;71.42
5550;BME280;2798;42.716;23.256;2022-11-11T10:23:32;96034.25;;;14.99;71.77
5550;BME280;2798;42.716;23.256;2022-11-11T10:26:18;96031.56;;;15.00;71.18
5550;BME280;2798;42.716;23.256;2022-11-11T10:28:44;96018.09;;;14.95;71.13
5550;BME280;2798;42.716;23.256;2022-11-11T10:31:21;96028.53;;;15.06;70.86
5550;BME280;2798;42.716;23.256;2022-11-11T10:33:55;96026.16;;;15.03;70.41
5550;BME280;2798;42.716;23.256;2022-11-11T10:36:24;95973.44;;;14.65;70.15
5550;BME280;2798;42.716;23.256;2022-11-11T10:39:02;96009.47;;;14.94;70.11
5550;BME280;2798;42.716;23.256;2022-11-11T10:41:48;96029.91;;;14.99;69.47
5550;BME280;2798;42.716;23.256;2022-11-11T10:44:24;96023.16;;;14.97;69.48
5550;BME280;2798;42.716;23.256;2022-11-11T10:47:31;96017.88;;;14.98;69.59
5550;BME280;2798;42.716;23.256;2022-11-11T10:50:11;96032.41;;;15.01;68.91
5550;BME280;2798;42.716;23.256;2022-11-11T10:52:42;95998.41;;;14.92;68.46
5550;BME280;2798;42.716;23.256;2022-11-11T10:55:17;96021.19;;;15.00;68.44
5550;BME280;2798;42.716;23.256;2022-11-11T10:57:53;96025.31;;;15.03;68.38
5550;BME280;2798;42.716;23.256;2022-11-11T11:00:21;96006.16;;;15.05;67.67
5550;BME280;2798;42.716;23.256;2022-11-11T11:03:09;96008.75;;;15.05;67.55
5550;BME280;2798;42.716;23.256;2022-11-11T11:05:47;96012.75;;;15.10;67.90
5550;BME280;2798;42.716;23.256;2022-11-11T11:08:22;95989.44;;;15.10;67.95
5550;BME280;2798;42.716;23.256;2022-11-11T11:10:57;96001.97;;;15.16;67.34
5550;BME280;2798;42.716;23.256;2022-11-11T11:15:58;95951.53;;;14.95;67.29
5550;BME280;2798;42.716;23.256;2022-11-11T11:18:27;95996.00;;;15.27;67.00
5550;BME280;2798;42.716;23.256;2022-11-11T11:21:03;95991.44;;;15.30;66.48
5550;BME280;2798;42.716;23.256;2022-11-11T11:23:41;95988.63;;;15.33;66.06
5550;BME280;2798;42.716;23.256;2022-11-11T11:26:09;95991.84;;;15.37;65.59
5550;BME280;2798;42.716;23.256;2022-11-11T11:28:55;95992.44;;;15.41;65.22
5550;BME280;2798;42.716;23.256;2022-11-11T11:31:37;95940.63;;;15.28;64.30
5550;BME280;2798;42.716;23.256;2022-11-11T11:34:04;95979.31;;;15.55;64.05
5550;BME280;2798;42.716;23.256;2022-11-11T11:36:30;95980.50;;;15.63;63.54
5550;BME280;2798;42.716;23.256;2022-11-11T11:38:55;95969.78;;;15.67;63.27
5550;BME280;2798;42.716;23.256;2022-11-11T11:41:43;95966.75;;;15.74;63.17
5550;BME280;2798;42.716;23.256;2022-11-11T11:44:32;95948.56;;;15.74;62.81
5550;BME280;2798;42.716;23.256;2022-11-11T11:58:52;95959.06;;;15.72;62.86
5550;BME280;2798;42.716;23.256;2022-11-11T12:01:25;95962.50;;;15.73;62.94
5550;BME280;2798;42.716;23.256;2022-11-11T12:15:40;95959.00;;;15.49;62.22
5550;BME280;2798;42.716;23.256;2022-11-11T12:21:13;95936.47;;;15.25;61.84
5550;BME280;2798;42.716;23.256;2022-11-11T12:26:44;95943.28;;;15.39;61.49
5550;BME280;2798;42.716;23.256;2022-11-11T12:29:37;95945.38;;;15.34;61.49
5550;BME280;2798;42.716;23.256;2022-11-11T12:35:14;95942.16;;;15.30;61.81
5550;BME280;2798;42.716;23.256;2022-11-11T12:41:08;95941.31;;;15.30;62.03
5550;BME280;2798;42.716;23.256;2022-11-11T12:46:49;95941.31;;;15.30;62.06
5550;BME280;2798;42.716;23.256;2022-11-11T13:04:04;95945.09;;;15.26;62.54
5550;BME280;2798;42.716;23.256;2022-11-11T13:06:55;95932.16;;;15.13;62.71
5550;BME280;2798;42.716;23.256;2022-11-11T13:12:44;95946.59;;;15.17;62.43
5550;BME280;2798;42.716;23.256;2022-11-11T13:15:15;95945.25;;;15.11;62.57
5550;BME280;2798;42.716;23.256;2022-11-11T13:17:41;95942.66;;;15.11;62.65
5550;BME280;2798;42.716;23.256;2022-11-11T13:22:57;95946.53;;;15.05;62.59
5550;BME280;2798;42.716;23.256;2022-11-11T13:25:24;95946.84;;;15.01;62.78
5550;BME280;2798;42.716;23.256;2022-11-11T13:27:57;95947.06;;;14.98;63.07
5550;BME280;2798;42.716;23.256;2022-11-11T13:33:38;95952.34;;;14.96;62.83
5550;BME280;2798;42.716;23.256;2022-11-11T13:36:08;95942.63;;;14.87;63.12
5550;BME280;2798;42.716;23.256;2022-11-11T13:38:42;95964.81;;;14.91;63.47
5550;BME280;2798;42.716;23.256;2022-11-11T13:41:09;95960.53;;;14.90;63.47
5550;BME280;2798;42.716;23.256;2022-11-11T13:43:40;95946.03;;;14.87;63.46
5550;BME280;2798;42.716;23.256;2022-11-11T13:46:30;95953.94;;;14.86;63.83
5550;BME280;2798;42.716;23.256;2022-11-11T13:48:56;95960.88;;;14.85;63.51
5550;BME280;2798;42.716;23.256;2022-11-11T13:54:01;95949.91;;;14.81;63.97
5550;BME280;2798;42.716;23.256;2022-11-11T13:56:39;95955.25;;;14.78;63.84
5550;BME280;2798;42.716;23.256;2022-11-11T13:59:07;95957.34;;;14.73;64.07
5550;BME280;2798;42.716;23.256;2022-11-11T14:01:40;95953.81;;;14.74;63.91
5550;BME280;2798;42.716;23.256;2022-11-11T14:04:07;95959.00;;;14.74;64.08
5550;BME280;2798;42.716;23.256;2022-11-11T14:08:58;95964.63;;;14.68;64.15
5550;BME280;2798;42.716;23.256;2022-11-11T14:13:53;95963.66;;;14.69;64.61
5550;BME280;2798;42.716;23.256;2022-11-11T14:24:36;95966.47;;;14.66;64.79
5550;BME280;2798;42.716;23.256;2022-11-11T14:27:13;95966.56;;;14.64;64.85
5550;BME280;2798;42.716;23.256;2022-11-11T14:29:52;95968.38;;;14.64;64.71
5550;BME280;2798;42.716;23.256;2022-11-11T14:40:11;95968.66;;;14.59;65.13
5550;BME280;2798;42.716;23.256;2022-11-11T14:47:48;95975.81;;;14.55;64.90
5550;BME280;2798;42.716;23.256;2022-11-11T14:53:08;95976.03;;;14.52;65.28
5550;BME280;2798;42.716;23.256;2022-11-11T14:55:38;95984.63;;;14.53;65.53
5550;BME280;2798;42.716;23.256;2022-11-11T15:00:56;95980.38;;;14.52;65.64
5550;BME280;2798;42.716;23.256;2022-11-11T15:06:34;95949.94;;;14.29;65.52
5550;BME280;2798;42.716;23.256;2022-11-11T15:11:56;95991.38;;;14.42;65.92
5550;BME280;2798;42.716;23.256;2022-11-11T15:24:13;96009.78;;;14.12;63.84
5550;BME280;2798;42.716;23.256;2022-11-11T15:27:25;96004.47;;;13.87;65.74
5550;BME280;2798;42.716;23.256;2022-11-11T15:32:06;96001.28;;;13.69;67.95
5550;BME280;2798;42.716;23.256;2022-11-11T15:34:48;95987.72;;;13.52;67.88
5550;BME280;2798;42.716;23.256;2022-11-11T15:37:18;95985.03;;;13.54;68.96
5550;BME280;2798;42.716;23.256;2022-11-11T15:39:47;95985.28;;;13.49;69.58
5550;BME280;2798;42.716;23.256;2022-11-11T15:42:33;95987.72;;;13.38;68.46
5550;BME280;2798;42.716;23.256;2022-11-11T15:45:03;95990.22;;;13.39;69.08
5550;BME280;2798;42.716;23.256;2022-11-11T15:47:35;95992.25;;;13.34;69.05
5550;BME280;2798;42.716;23.256;2022-11-11T15:50:01;96002.69;;;13.32;69.31